createdAt,value
2019-03-06T00:02:26.403Z,99985.41
2019-03-06T00:04:56.767Z,99988.82
2019-03-06T00:07:27.308Z,99981.93
2019-03-06T00:09:57.667Z,99985.59
2019-03-06T00:12:28.141Z,99972.72
2019-03-06T00:14:58.566Z,99976.28
2019-03-06T00:17:29.054Z,99986.89
2019-03-06T00:19:59.474Z,99988.41
2019-03-06T00:22:29.881Z,99983.32
2019-03-06T00:25:00.332Z,99984.82
2019-03-06T00:27:30.811Z,99980.41
2019-03-06T00:30:01.248Z,99974.38
2019-03-06T00:32:31.729Z,99970.96
2019-03-06T00:35:04.083Z,99972.02
2019-03-06T00:37:54.690Z,99962.06
2019-03-06T00:40:26.526Z,99967.74
2019-03-06T00:42:57.025Z,99966.50
2019-03-06T00:45:27.410Z,99962.02
2019-03-06T00:47:57.879Z,99961.49
2019-03-06T00:50:28.303Z,99956.39
2019-03-06T00:52:58.758Z,99956.39
2019-03-06T00:55:29.181Z,99955.57
2019-03-06T00:57:59.564Z,99956.97
2019-03-06T01:00:30.097Z,99951.91
2019-03-06T01:03:00.726Z,99954.61
2019-03-06T01:05:31.121Z,99963.08
2019-03-06T01:08:01.589Z,99959.48
2019-03-06T01:10:32.025Z,99965.39
2019-03-06T01:13:02.515Z,99974.63
2019-03-06T01:15:32.932Z,99984.83
2019-03-06T01:18:03.413Z,99978.34
2019-03-06T01:20:33.879Z,99983.73
2019-03-06T01:23:04.327Z,99977.12
2019-03-06T01:25:34.874Z,99980.58
2019-03-06T01:28:05.345Z,99986.23
2019-03-06T01:30:35.800Z,99980.08
2019-03-06T01:33:25.933Z,99979.89
2019-03-06T01:36:01.000Z,99984.62
2019-03-06T01:38:39.099Z,99986.48
2019-03-06T01:41:11.117Z,99990.15
2019-03-06T01:43:46.150Z,99984.03
2019-03-06T01:46:16.583Z,99997.52
2019-03-06T01:48:47.082Z,99995.08
2019-03-06T01:51:17.519Z,99991.51
2019-03-06T01:53:48.026Z,99993.37
2019-03-06T01:56:18.482Z,99998.92
2019-03-06T01:58:48.977Z,99992.97
2019-03-06T02:01:19.419Z,99993.73
2019-03-06T02:03:50.984Z,99993.69
2019-03-06T02:06:21.593Z,100001.97
2019-03-06T02:08:52.072Z,99995.23
2019-03-06T02:11:22.511Z,100008.05
2019-03-06T02:13:53.020Z,99992.59
2019-03-06T02:16:23.445Z,99998.11
2019-03-06T02:18:53.956Z,99997.09
2019-03-06T02:21:24.382Z,99990.86
2019-03-06T02:23:54.868Z,100001.20
2019-03-06T02:26:26.791Z,100002.94
2019-03-06T02:28:57.276Z,100001.69
2019-03-06T02:31:27.726Z,100002.27
2019-03-06T02:33:58.216Z,100005.35
2019-03-06T02:36:28.643Z,100002.66
2019-03-06T02:38:59.122Z,100001.89
2019-03-06T02:41:29.558Z,100010.55
2019-03-06T02:44:00.058Z,100019.36
2019-03-06T02:46:30.515Z,100013.06
2019-03-06T02:49:01.003Z,100018.78
2019-03-06T02:51:31.721Z,100023.07
2019-03-06T02:54:02.279Z,100026.03
2019-03-06T02:56:32.688Z,100031.05
2019-03-06T02:59:04.742Z,100032.89
2019-03-06T03:01:52.910Z,100028.80
2019-03-06T03:04:34.765Z,100034.31
2019-03-06T03:07:06.768Z,100033.27
2019-03-06T03:09:37.331Z,100038.04
2019-03-06T03:12:07.754Z,100038.37
2019-03-06T03:14:38.247Z,100045.35
2019-03-06T03:17:08.676Z,100049.52
2019-03-06T03:19:39.157Z,100048.94
2019-03-06T03:22:09.585Z,100046.67
2019-03-06T03:24:40.043Z,100055.52
2019-03-06T03:27:10.493Z,100055.41
2019-03-06T03:29:40.972Z,100062.93
2019-03-06T03:32:11.440Z,100065.25
2019-03-06T03:34:42.001Z,100075.55
2019-03-06T03:37:12.467Z,100072.44
2019-03-06T03:39:42.948Z,100083.27
2019-03-06T03:42:13.402Z,100085.73
2019-03-06T03:44:43.949Z,100086.94
2019-03-06T03:47:14.385Z,100090.43
2019-03-06T03:49:44.888Z,100089.27
2019-03-06T03:52:15.336Z,100095.02
2019-03-06T03:54:45.830Z,100110.66
2019-03-06T03:57:16.460Z,100113.06
2019-03-06T03:59:46.966Z,100114.23
2019-03-06T04:02:17.424Z,100125.47
2019-03-06T04:04:48.875Z,100123.68
2019-03-06T04:07:19.332Z,100128.25
2019-03-06T04:09:49.831Z,100132.94
2019-03-06T04:12:20.279Z,100136.69
2019-03-06T04:14:50.787Z,100141.08
2019-03-06T04:17:21.236Z,100149.02
2019-03-06T04:19:51.718Z,100157.15
2019-03-06T04:22:22.170Z,100157.02
2019-03-06T04:24:52.671Z,100167.06
2019-03-06T04:27:23.112Z,100167.30
2019-03-06T04:29:53.582Z,100164.01
2019-03-06T04:32:24.362Z,100158.66
2019-03-06T04:34:54.822Z,100162.59
2019-03-06T04:37:25.223Z,100166.02
2019-03-06T04:39:55.688Z,100168.53
2019-03-06T04:42:26.100Z,100162.05
2019-03-06T04:44:56.588Z,100170.31
2019-03-06T04:47:27.008Z,100173.98
2019-03-06T04:49:57.481Z,100179.48
2019-03-06T04:52:27.899Z,100181.02
2019-03-06T04:54:58.819Z,100180.74
2019-03-06T04:57:29.242Z,100177.23
2019-03-06T04:59:59.701Z,100193.22
2019-03-06T05:02:30.116Z,100187.70
2019-03-06T05:05:01.542Z,100186.20
2019-03-06T05:07:31.981Z,100189.02
2019-03-06T05:10:02.447Z,100199.02
2019-03-06T05:12:32.855Z,100198.07
2019-03-06T05:15:03.373Z,100193.46
2019-03-06T05:17:41.675Z,100187.50
2019-03-06T05:20:12.161Z,100182.30
2019-03-06T05:22:42.566Z,100189.30
2019-03-06T05:25:13.045Z,100180.97
2019-03-06T05:27:43.466Z,100187.91
2019-03-06T05:30:15.521Z,100189.99
2019-03-06T05:32:48.228Z,100191.84
2019-03-06T05:35:24.326Z,100189.39
2019-03-06T05:38:04.397Z,100201.88
2019-03-06T05:40:34.909Z,100198.12
2019-03-06T05:43:05.415Z,100201.98
2019-03-06T05:45:35.890Z,100199.03
2019-03-06T05:48:06.470Z,100207.90
2019-03-06T05:50:36.960Z,100210.89
2019-03-06T05:53:07.387Z,100204.03
2019-03-06T05:55:37.857Z,100211.41
2019-03-06T05:58:08.297Z,100213.44
2019-03-06T06:00:38.766Z,100210.52
2019-03-06T06:03:09.176Z,100217.12
2019-03-06T06:05:40.714Z,100221.14
2019-03-06T06:08:11.183Z,100222.59
2019-03-06T06:10:41.656Z,100228.99
2019-03-06T06:13:12.137Z,100232.75
2019-03-06T06:15:42.648Z,100232.23
2019-03-06T06:18:13.086Z,100231.64
2019-03-06T06:20:43.840Z,100230.73
2019-03-06T06:23:15.832Z,100232.03
2019-03-06T06:25:46.291Z,100228.86
2019-03-06T06:28:16.740Z,100229.00
2019-03-06T06:30:47.204Z,100226.06
2019-03-06T06:33:17.632Z,100228.05
2019-03-06T06:35:48.130Z,100222.20
2019-03-06T06:38:18.560Z,100226.78
2019-03-06T06:40:49.020Z,100228.44
2019-03-06T06:43:19.690Z,100226.86
2019-03-06T06:45:50.186Z,100225.66
2019-03-06T06:48:22.704Z,100233.46
2019-03-06T06:51:07.919Z,100223.41
2019-03-06T06:53:47.447Z,100225.19
2019-03-06T06:56:38.789Z,100222.08
2019-03-06T06:59:27.378Z,100228.36
2019-03-06T07:02:14.460Z,100220.45
2019-03-06T07:05:11.739Z,100217.52
2019-03-06T07:07:49.970Z,100221.30
2019-03-06T07:10:38.560Z,100224.01
2019-03-06T07:13:16.593Z,100235.84
2019-03-06T07:15:48.606Z,100238.95
2019-03-06T07:18:20.682Z,100235.37
2019-03-06T07:21:10.754Z,100240.85
2019-03-06T07:23:51.977Z,100241.94
2019-03-06T07:26:40.091Z,100249.17
2019-03-06T07:29:12.110Z,100247.92
2019-03-06T07:31:50.175Z,100254.98
2019-03-06T07:34:38.474Z,100261.66
2019-03-06T07:37:10.502Z,100267.97
2019-03-06T07:39:42.542Z,100265.14
2019-03-06T07:42:26.427Z,100267.98
2019-03-06T07:45:32.952Z,100268.48
2019-03-06T07:48:07.650Z,100268.29
2019-03-06T07:50:39.703Z,100273.84
2019-03-06T07:53:49.102Z,100272.78
2019-03-06T07:56:21.765Z,100273.20
2019-03-06T07:58:57.032Z,100273.20
2019-03-06T08:01:30.420Z,100275.34
2019-03-06T08:04:12.198Z,100281.14
2019-03-06T08:06:44.261Z,100282.61
2019-03-06T08:09:19.343Z,100276.91
2019-03-06T08:12:00.567Z,100286.33
2019-03-06T08:14:32.552Z,100285.20
2019-03-06T08:17:04.621Z,100283.35
2019-03-06T08:19:52.759Z,100288.48
2019-03-06T08:22:24.819Z,100292.65
2019-03-06T08:25:13.273Z,100299.68
2019-03-06T08:27:43.766Z,100301.66
2019-03-06T08:30:14.426Z,100296.91
2019-03-06T08:32:44.940Z,100294.02
2019-03-06T08:35:15.377Z,100288.94
2019-03-06T08:37:45.985Z,100296.88
2019-03-06T08:40:16.488Z,100288.78
2019-03-06T08:42:46.983Z,100298.63
2019-03-06T08:45:35.283Z,100292.05
2019-03-06T08:48:22.439Z,100295.11
2019-03-06T08:51:10.958Z,100298.41
2019-03-06T08:53:45.752Z,100291.91
2019-03-06T08:56:17.746Z,100294.21
2019-03-06T08:58:59.054Z,100299.99
2019-03-06T09:01:46.558Z,100291.64
2019-03-06T09:04:33.885Z,100291.64
2019-03-06T09:07:14.946Z,100291.59
2019-03-06T09:09:53.530Z,100296.46
2019-03-06T09:12:28.211Z,100285.44
2019-03-06T09:15:06.993Z,100310.92
2019-03-06T09:17:45.057Z,100310.92
2019-03-06T09:20:19.871Z,100309.75
2019-03-06T09:22:54.931Z,100289.14
2019-03-06T09:25:30.873Z,100304.56
2019-03-06T09:28:12.022Z,100306.88
2019-03-06T09:30:47.376Z,100306.34
2019-03-06T09:33:28.749Z,100311.78
2019-03-06T09:36:19.680Z,100317.92
2019-03-06T09:38:58.645Z,100317.66
2019-03-06T09:41:45.735Z,100321.87
2019-03-06T09:44:30.972Z,100325.94
2019-03-06T09:47:15.693Z,100317.81
2019-03-06T09:49:56.787Z,100321.54
2019-03-06T09:52:44.009Z,100320.64
2019-03-06T09:55:18.685Z,100314.63
2019-03-06T09:57:53.791Z,100337.39
2019-03-06T10:00:32.865Z,100334.19
2019-03-06T10:03:11.953Z,100335.17
2019-03-06T10:05:47.114Z,100342.56
2019-03-06T10:08:21.831Z,100342.56
2019-03-06T10:10:58.138Z,100344.64
2019-03-06T10:13:30.351Z,100357.47
2019-03-06T10:16:17.280Z,100358.30
2019-03-06T10:18:49.441Z,100360.90
2019-03-06T10:21:19.859Z,100356.69
2019-03-06T10:23:50.318Z,100346.15
2019-03-06T10:26:20.999Z,100348.74
2019-03-06T10:28:51.574Z,100343.17
2019-03-06T10:31:22.193Z,100352.44
2019-03-06T10:33:52.650Z,100352.20
2019-03-06T10:36:23.080Z,100343.69
2019-03-06T10:38:55.141Z,100343.94
2019-03-06T10:41:25.828Z,100342.73
2019-03-06T10:43:56.304Z,100350.02
2019-03-06T10:46:28.245Z,100357.94
2019-03-06T10:48:58.751Z,100359.44
2019-03-06T10:51:31.005Z,100355.93
2019-03-06T10:54:01.368Z,100360.30
2019-03-06T10:56:31.902Z,100369.31
2019-03-06T10:59:02.658Z,100356.70
2019-03-06T11:01:33.198Z,100351.06
2019-03-06T11:04:05.456Z,100352.80
2019-03-06T11:06:35.997Z,100354.38
2019-03-06T11:09:09.524Z,100365.38
2019-03-06T11:11:43.545Z,100361.42
2019-03-06T11:14:13.999Z,100357.51
2019-03-06T11:16:48.222Z,100361.58
2019-03-06T11:19:18.729Z,100353.14
2019-03-06T11:21:49.181Z,100367.45
2019-03-06T11:26:51.609Z,100360.06
2019-03-06T11:29:22.056Z,100370.91
2019-03-06T11:31:53.998Z,100351.26
2019-03-06T11:34:24.615Z,100353.96
2019-03-06T11:36:55.361Z,100353.27
2019-03-06T11:39:26.064Z,100363.36
2019-03-06T11:41:56.652Z,100360.37
2019-03-06T11:44:27.079Z,100357.05
2019-03-06T11:46:57.554Z,100360.28
2019-03-06T11:49:30.012Z,100346.83
2019-03-06T11:52:00.443Z,100343.68
2019-03-06T11:54:30.893Z,100348.41
2019-03-06T11:57:01.342Z,100347.27
2019-03-06T11:59:31.749Z,100357.27
2019-03-06T12:02:02.740Z,100342.60
2019-03-06T12:04:33.223Z,100354.69
2019-03-06T12:07:05.027Z,100349.34
2019-03-06T12:09:35.609Z,100349.40
2019-03-06T12:12:07.285Z,100366.12
2019-03-06T12:14:37.898Z,100360.78
2019-03-06T12:17:08.354Z,100353.51
2019-03-06T12:19:39.863Z,100363.66
2019-03-06T12:22:10.868Z,100358.30
2019-03-06T12:24:52.786Z,100356.85
2019-03-06T12:27:23.255Z,100350.52
2019-03-06T12:29:53.844Z,100359.09
2019-03-06T12:32:24.313Z,100360.83
2019-03-06T12:34:54.902Z,100358.23
2019-03-06T12:37:25.436Z,100366.89
2019-03-06T12:39:55.977Z,100355.90
2019-03-06T12:42:26.736Z,100364.35
2019-03-06T12:44:57.095Z,100375.86
2019-03-06T12:47:27.714Z,100373.47
2019-03-06T12:50:05.411Z,100371.93
2019-03-06T12:52:43.537Z,100369.13
2019-03-06T12:55:16.644Z,100379.91
2019-03-06T12:57:47.144Z,100377.92
2019-03-06T13:00:27.633Z,100392.66
2019-03-06T13:02:58.456Z,100386.30
2019-03-06T13:05:29.051Z,100381.56
2019-03-06T13:07:59.672Z,100388.50
2019-03-06T13:10:30.492Z,100380.88
2019-03-06T13:13:01.953Z,100389.41
2019-03-06T13:15:32.902Z,100387.79
2019-03-06T13:18:03.564Z,100403.04
2019-03-06T13:20:35.013Z,100406.63
2019-03-06T13:23:05.891Z,100399.48
2019-03-06T13:25:36.327Z,100410.67
2019-03-06T13:28:06.892Z,100409.86
2019-03-06T13:30:37.824Z,100416.56
2019-03-06T13:33:15.688Z,100425.25
2019-03-06T13:35:46.240Z,100426.31
2019-03-06T13:38:16.773Z,100425.08
2019-03-06T13:40:47.399Z,100436.27
2019-03-06T13:43:17.976Z,100430.33
2019-03-06T13:45:49.857Z,100440.92
2019-03-06T13:48:20.334Z,100453.73
2019-03-06T13:50:51.128Z,100452.19
2019-03-06T13:53:21.870Z,100457.72
2019-03-06T13:55:52.317Z,100455.69
2019-03-06T13:58:24.318Z,100455.23
2019-03-06T14:00:54.760Z,100465.45
2019-03-06T14:03:25.310Z,100466.50
2019-03-06T14:05:56.807Z,100477.52
2019-03-06T14:08:27.486Z,100478.95
2019-03-06T14:10:57.927Z,100475.42
2019-03-06T14:13:30.389Z,100475.42
2019-03-06T14:16:00.894Z,100487.86
2019-03-06T14:18:31.372Z,100496.81
2019-03-06T14:21:01.768Z,100496.81
2019-03-06T14:23:35.215Z,100505.45
2019-03-06T14:26:08.695Z,100501.77
2019-03-06T14:28:39.164Z,100509.79
2019-03-06T14:31:10.971Z,100509.79
2019-03-06T14:33:41.446Z,100510.16
2019-03-06T14:36:11.966Z,100508.41
2019-03-06T14:38:42.459Z,100512.78
2019-03-06T14:41:12.875Z,100515.44
2019-03-06T14:43:43.436Z,100516.30
2019-03-06T14:46:17.054Z,100521.20
2019-03-06T14:48:48.167Z,100527.92
2019-03-06T14:51:18.505Z,100535.70
2019-03-06T14:53:48.979Z,100536.79
2019-03-06T14:56:19.496Z,100536.79
2019-03-06T14:58:54.098Z,100542.86
2019-03-06T15:01:25.378Z,100540.11
2019-03-06T15:03:57.494Z,100544.67
2019-03-06T15:06:27.958Z,100543.67
2019-03-06T15:08:58.553Z,100548.47
2019-03-06T15:11:33.293Z,100555.55
2019-03-06T15:14:04.996Z,100557.55
2019-03-06T15:16:55.124Z,100568.83
2019-03-06T15:19:27.000Z,100566.55
2019-03-06T15:21:58.786Z,100575.36
2019-03-06T15:24:29.323Z,100569.16
2019-03-06T15:26:59.958Z,100574.36
2019-03-06T15:29:30.430Z,100578.91
2019-03-06T15:32:03.605Z,100580.09
2019-03-06T15:34:34.070Z,100574.08
2019-03-06T15:37:04.509Z,100582.31
2019-03-06T15:39:44.528Z,100592.06
2019-03-06T15:42:09.570Z,100592.06
2019-03-06T15:44:40.529Z,100603.55
2019-03-06T15:47:12.189Z,100609.42
2019-03-06T15:49:42.991Z,100613.36
2019-03-06T15:52:15.083Z,100614.11
2019-03-06T15:54:45.649Z,100617.44
2019-03-06T15:57:16.652Z,100621.34
2019-03-06T15:59:47.362Z,100628.81
2019-03-06T16:02:17.812Z,100634.35
2019-03-06T16:04:48.365Z,100638.55
2019-03-06T16:10:27.622Z,100648.48
2019-03-06T16:13:01.066Z,100653.27
2019-03-06T16:15:32.700Z,100654.56
2019-03-06T16:18:05.219Z,100665.44
2019-03-06T16:20:35.814Z,100667.13
2019-03-06T16:23:06.235Z,100669.07
2019-03-06T16:25:39.910Z,100680.56
2019-03-06T16:28:08.818Z,100679.53
2019-03-06T16:30:40.238Z,100683.70
2019-03-06T16:33:10.683Z,100692.18
2019-03-06T16:35:41.133Z,100683.05
2019-03-06T16:38:11.555Z,100689.45
2019-03-06T16:40:42.191Z,100692.72
2019-03-06T16:43:12.926Z,100692.72
2019-03-06T16:45:43.485Z,100706.00
2019-03-06T16:48:13.949Z,100702.13
2019-03-06T16:50:44.596Z,100711.45
2019-03-06T16:53:15.422Z,100707.17
2019-03-06T16:55:45.916Z,100715.23
2019-03-06T16:58:16.373Z,100711.06
2019-03-06T17:00:47.359Z,100711.98
2019-03-06T17:03:17.749Z,100723.70
2019-03-06T17:05:48.751Z,100720.69
2019-03-06T17:08:20.427Z,100729.05
2019-03-06T17:10:50.943Z,100729.55
2019-03-06T17:13:21.421Z,100724.77
2019-03-06T17:15:53.795Z,100728.11
2019-03-06T17:18:24.454Z,100730.09
2019-03-06T17:20:55.089Z,100740.14
2019-03-06T17:23:25.576Z,100732.19
2019-03-06T17:25:56.101Z,100739.91
2019-03-06T17:28:26.564Z,100737.92
2019-03-06T17:30:57.147Z,100735.42
2019-03-06T17:33:27.623Z,100739.58
2019-03-06T17:35:58.137Z,100738.43
2019-03-06T17:38:28.701Z,100738.63
2019-03-06T17:40:59.173Z,100736.53
2019-03-06T17:43:30.811Z,100740.81
2019-03-06T17:46:01.399Z,100739.25
2019-03-06T17:48:31.977Z,100754.47
2019-03-06T17:51:02.481Z,100752.36
2019-03-06T17:53:32.962Z,100764.59
2019-03-06T17:56:03.512Z,100761.20
2019-03-06T17:58:33.980Z,100767.99
2019-03-06T18:01:06.099Z,100769.61
2019-03-06T18:03:38.100Z,100773.73
2019-03-06T18:06:08.660Z,100778.82
2019-03-06T18:08:39.318Z,100778.79
2019-03-06T18:11:09.940Z,100782.41
2019-03-06T18:13:40.397Z,100789.86
2019-03-06T18:16:11.091Z,100791.02
2019-03-06T18:18:41.571Z,100793.92
2019-03-06T18:21:12.528Z,100793.89
2019-03-06T18:23:43.007Z,100796.67
2019-03-06T18:26:13.501Z,100800.27
2019-03-06T18:28:44.056Z,100813.72
2019-03-06T18:31:15.027Z,100804.75
2019-03-06T18:33:45.646Z,100811.93
2019-03-06T18:36:16.166Z,100817.02
2019-03-06T18:38:46.612Z,100821.62
2019-03-06T18:41:17.096Z,100822.45
2019-03-06T18:43:47.571Z,100828.02
2019-03-06T18:46:18.079Z,100830.09
2019-03-06T18:48:48.797Z,100828.51
2019-03-06T18:51:19.341Z,100836.75
2019-03-06T18:53:49.808Z,100841.77
2019-03-06T18:56:20.299Z,100838.09
2019-03-06T18:58:50.764Z,100843.41
2019-03-06T19:01:21.284Z,100848.37
2019-03-06T19:03:51.759Z,100857.32
2019-03-06T19:06:22.291Z,100858.04
2019-03-06T19:08:52.745Z,100865.02
2019-03-06T19:11:23.232Z,100868.06
2019-03-06T19:13:53.679Z,100878.39
2019-03-06T19:16:25.431Z,100874.62
2019-03-06T19:18:55.900Z,100880.82
2019-03-06T19:21:26.397Z,100875.26
2019-03-06T19:23:56.861Z,100879.66
2019-03-06T19:26:27.349Z,100890.84
2019-03-06T19:28:57.902Z,100895.16
2019-03-06T19:31:28.396Z,100896.95
2019-03-06T19:33:58.850Z,100901.30
2019-03-06T19:36:29.383Z,100905.28
2019-03-06T19:38:59.890Z,100910.51
2019-03-06T19:41:30.421Z,100914.20
2019-03-06T19:44:01.185Z,100915.77
2019-03-06T19:46:31.686Z,100916.44
2019-03-06T19:49:02.132Z,100918.72
2019-03-06T19:51:32.651Z,100924.76
2019-03-06T19:54:03.123Z,100931.61
2019-03-06T19:56:33.897Z,100937.79
2019-03-06T19:59:04.388Z,100939.30
2019-03-06T20:01:34.944Z,100947.36
2019-03-06T20:04:05.565Z,100954.77
2019-03-06T20:06:36.064Z,100953.86
2019-03-06T20:09:09.426Z,100955.89
2019-03-06T20:11:39.938Z,100962.05
2019-03-06T20:14:10.383Z,100965.05
2019-03-06T20:16:41.881Z,100968.25
2019-03-06T20:19:12.335Z,100962.66
2019-03-06T20:21:42.806Z,100961.33
2019-03-06T20:24:13.452Z,100968.97
2019-03-06T20:26:44.169Z,100964.38
2019-03-06T20:29:14.762Z,100974.31
2019-03-06T20:31:45.275Z,100969.45
2019-03-06T20:34:15.723Z,100975.44
2019-03-06T20:36:46.219Z,100984.46
2019-03-06T20:39:16.672Z,100990.09
2019-03-06T20:41:48.404Z,100988.83
2019-03-06T20:44:20.353Z,100999.42
2019-03-06T20:46:50.850Z,101013.06
2019-03-06T20:49:21.297Z,101013.24
2019-03-06T20:51:51.961Z,101017.36
2019-03-06T20:54:22.412Z,101020.14
2019-03-06T20:56:52.905Z,101017.56
2019-03-06T20:59:23.376Z,101023.33
2019-03-06T21:01:53.859Z,101030.13
2019-03-06T21:04:24.303Z,101029.30
2019-03-06T21:06:54.814Z,101030.65
2019-03-06T21:09:25.268Z,101035.89
2019-03-06T21:11:55.740Z,101045.34
2019-03-06T21:14:26.201Z,101046.60
2019-03-06T21:16:57.667Z,101052.62
2019-03-06T21:19:28.111Z,101049.66
2019-03-06T21:21:58.595Z,101052.02
2019-03-06T21:24:29.224Z,101047.13
2019-03-06T21:26:59.725Z,101054.92
2019-03-06T21:29:30.169Z,101060.35
2019-03-06T21:32:00.695Z,101060.34
2019-03-06T21:34:31.164Z,101072.99
2019-03-06T21:37:01.662Z,101075.55
2019-03-06T21:39:32.135Z,101089.56
2019-03-06T21:42:02.675Z,101097.44
2019-03-06T21:44:33.148Z,101111.61
2019-03-06T21:47:03.681Z,101116.32
2019-03-06T21:49:34.125Z,101119.03
2019-03-06T21:52:04.905Z,101126.58
2019-03-06T21:54:35.396Z,101128.63
2019-03-06T21:57:05.933Z,101130.77
2019-03-06T21:59:36.371Z,101122.22
2019-03-06T22:02:06.884Z,101121.70
2019-03-06T22:04:37.322Z,101118.19
2019-03-06T22:07:07.851Z,101137.96
2019-03-06T22:09:38.320Z,101134.22
2019-03-06T22:12:08.819Z,101130.86
2019-03-06T22:14:39.272Z,101133.70
2019-03-06T22:17:10.779Z,101139.66
2019-03-06T22:19:41.257Z,101140.48
2019-03-06T22:22:11.746Z,101145.08
2019-03-06T22:24:42.722Z,101148.62
2019-03-06T22:27:13.207Z,101145.24
2019-03-06T22:29:43.665Z,101155.55
2019-03-06T22:32:14.331Z,101148.80
2019-03-06T22:34:44.804Z,101148.97
2019-03-06T22:37:15.289Z,101151.83
2019-03-06T22:39:45.745Z,101153.38
2019-03-06T22:42:16.218Z,101155.73
2019-03-06T22:44:46.692Z,101159.44
2019-03-06T22:47:17.210Z,101157.57
2019-03-06T22:49:47.656Z,101160.96
2019-03-06T22:52:18.159Z,101162.31
2019-03-06T22:54:48.618Z,101174.12
2019-03-06T22:57:19.140Z,101175.10
2019-03-06T22:59:49.583Z,101174.27
2019-03-06T23:02:21.961Z,101177.47
2019-03-06T23:04:52.413Z,101177.48
2019-03-06T23:07:22.907Z,101180.52
2019-03-06T23:09:53.333Z,101189.11
2019-03-06T23:12:23.833Z,101191.30
2019-03-06T23:14:54.291Z,101201.75
2019-03-06T23:17:25.761Z,101198.53
2019-03-06T23:19:56.225Z,101198.19
2019-03-06T23:22:26.809Z,101199.34
2019-03-06T23:24:57.269Z,101203.59
2019-03-06T23:27:27.734Z,101202.22
2019-03-06T23:29:58.168Z,101216.86
2019-03-06T23:32:28.660Z,101223.83
2019-03-06T23:34:59.097Z,101225.17
2019-03-06T23:37:29.583Z,101225.27
2019-03-06T23:40:00.051Z,101220.77
2019-03-06T23:42:30.536Z,101222.09
2019-03-06T23:45:00.970Z,101220.53
2019-03-06T23:47:31.463Z,101215.20
2019-03-06T23:50:02.096Z,101212.02
2019-03-06T23:52:34.156Z,101216.16
2019-03-06T23:55:04.699Z,101228.65
2019-03-06T23:57:35.311Z,101239.08
